sensor_id;sensor_type;location;lat;lon;timestamp;P1;durP1;ratioP1;P2;durP2;ratioP2
68888;SDS011;55930;47.412;8.790;2023-01-26T00:01:41;27.73;;;17.13;;
68888;SDS011;55930;47.412;8.790;2023-01-26T00:05:03;30.52;;;18.90;;
68888;SDS011;55930;47.412;8.790;2023-01-26T00:08:26;27.95;;;17.90;;
68888;SDS011;55930;47.412;8.790;2023-01-26T00:11:46;31.30;;;18.70;;
68888;SDS011;55930;47.412;8.790;2023-01-26T00:15:06;31.77;;;18.20;;
68888;SDS011;55930;47.412;8.790;2023-01-26T00:18:27;31.03;;;19.23;;
68888;SDS011;55930;47.412;8.790;2023-01-26T00:21:48;29.00;;;18.60;;
68888;SDS011;55930;47.412;8.790;2023-01-26T00:25:09;33.67;;;18.53;;
68888;SDS011;55930;47.412;8.790;2023-01-26T00:28:32;26.97;;;17.33;;
68888;SDS011;55930;47.412;8.790;2023-01-26T00:31:52;27.63;;;17.73;;
68888;SDS011;55930;47.412;8.790;2023-01-26T00:35:12;23.37;;;13.83;;
68888;SDS011;55930;47.412;8.790;2023-01-26T00:38:33;27.70;;;16.60;;
68888;SDS011;55930;47.412;8.790;2023-01-26T00:41:54;29.73;;;18.50;;
68888;SDS011;55930;47.412;8.790;2023-01-26T00:45:31;29.67;;;18.10;;
68888;SDS011;55930;47.412;8.790;2023-01-26T00:48:51;28.63;;;18.40;;
68888;SDS011;55930;47.412;8.790;2023-01-26T00:52:12;28.50;;;17.43;;
68888;SDS011;55930;47.412;8.790;2023-01-26T00:55:32;31.17;;;18.10;;
68888;SDS011;55930;47.412;8.790;2023-01-26T00:58:53;28.17;;;17.50;;
68888;SDS011;55930;47.412;8.790;2023-01-26T01:02:13;31.17;;;18.17;;
68888;SDS011;55930;47.412;8.790;2023-01-26T01:05:34;29.50;;;17.83;;
68888;SDS011;55930;47.412;8.790;2023-01-26T01:08:54;31.93;;;19.23;;
68888;SDS011;55930;47.412;8.790;2023-01-26T01:12:14;34.23;;;20.20;;
68888;SDS011;55930;47.412;8.790;2023-01-26T01:15:37;35.00;;;19.73;;
68888;SDS011;55930;47.412;8.790;2023-01-26T01:18:58;35.15;;;20.45;;
68888;SDS011;55930;47.412;8.790;2023-01-26T01:22:18;32.70;;;20.57;;
68888;SDS011;55930;47.412;8.790;2023-01-26T01:25:43;30.95;;;19.50;;
68888;SDS011;55930;47.412;8.790;2023-01-26T01:29:05;29.05;;;19.13;;
68888;SDS011;55930;47.412;8.790;2023-01-26T01:32:26;29.77;;;18.00;;
68888;SDS011;55930;47.412;8.790;2023-01-26T01:35:56;34.73;;;19.57;;
68888;SDS011;55930;47.412;8.790;2023-01-26T01:39:21;31.25;;;18.75;;
68888;SDS011;55930;47.412;8.790;2023-01-26T01:42:45;38.73;;;22.07;;
68888;SDS011;55930;47.412;8.790;2023-01-26T01:46:10;35.92;;;20.23;;
68888;SDS011;55930;47.412;8.790;2023-01-26T01:49:46;38.70;;;22.55;;
68888;SDS011;55930;47.412;8.790;2023-01-26T01:53:10;31.52;;;19.15;;
68888;SDS011;55930;47.412;8.790;2023-01-26T01:56:38;36.55;;;20.00;;
68888;SDS011;55930;47.412;8.790;2023-01-26T02:00:04;29.88;;;19.15;;
68888;SDS011;55930;47.412;8.790;2023-01-26T02:03:28;31.48;;;19.13;;
68888;SDS011;55930;47.412;8.790;2023-01-26T02:06:54;34.08;;;20.48;;
68888;SDS011;55930;47.412;8.790;2023-01-26T02:10:18;29.75;;;18.70;;
68888;SDS011;55930;47.412;8.790;2023-01-26T02:13:40;31.23;;;19.00;;
68888;SDS011;55930;47.412;8.790;2023-01-26T02:17:02;36.38;;;21.20;;
68888;SDS011;55930;47.412;8.790;2023-01-26T02:27:21;31.50;;;20.13;;
68888;SDS011;55930;47.412;8.790;2023-01-26T02:30:42;36.80;;;21.47;;
68888;SDS011;55930;47.412;8.790;2023-01-26T02:34:02;33.90;;;21.67;;
68888;SDS011;55930;47.412;8.790;2023-01-26T02:37:23;25.83;;;15.27;;
68888;SDS011;55930;47.412;8.790;2023-01-26T02:44:21;29.02;;;17.10;;
68888;SDS011;55930;47.412;8.790;2023-01-26T02:47:42;31.63;;;18.47;;
68888;SDS011;55930;47.412;8.790;2023-01-26T02:51:04;28.58;;;17.48;;
68888;SDS011;55930;47.412;8.790;2023-01-26T02:54:25;30.25;;;18.08;;
68888;SDS011;55930;47.412;8.790;2023-01-26T02:58:04;32.13;;;18.60;;
68888;SDS011;55930;47.412;8.790;2023-01-26T03:01:24;28.10;;;14.70;;
68888;SDS011;55930;47.412;8.790;2023-01-26T03:04:45;26.23;;;15.80;;
68888;SDS011;55930;47.412;8.790;2023-01-26T03:08:08;26.08;;;15.82;;
68888;SDS011;55930;47.412;8.790;2023-01-26T03:11:28;24.97;;;15.43;;
68888;SDS011;55930;47.412;8.790;2023-01-26T03:15:03;26.45;;;15.43;;
68888;SDS011;55930;47.412;8.790;2023-01-26T03:18:42;29.05;;;16.85;;
68888;SDS011;55930;47.412;8.790;2023-01-26T03:22:21;26.63;;;16.20;;
68888;SDS011;55930;47.412;8.790;2023-01-26T03:26:00;26.95;;;16.55;;
68888;SDS011;55930;47.412;8.790;2023-01-26T03:29:38;28.65;;;17.00;;
68888;SDS011;55930;47.412;8.790;2023-01-26T03:32:59;29.60;;;17.30;;
68888;SDS011;55930;47.412;8.790;2023-01-26T03:36:19;27.90;;;15.90;;
68888;SDS011;55930;47.412;8.790;2023-01-26T03:39:40;28.47;;;16.97;;
68888;SDS011;55930;47.412;8.790;2023-01-26T03:43:19;27.80;;;15.80;;
68888;SDS011;55930;47.412;8.790;2023-01-26T03:46:58;26.35;;;16.30;;
68888;SDS011;55930;47.412;8.790;2023-01-26T03:50:38;28.13;;;15.77;;
68888;SDS011;55930;47.412;8.790;2023-01-26T03:54:17;27.60;;;16.35;;
68888;SDS011;55930;47.412;8.790;2023-01-26T03:57:55;25.70;;;15.32;;
68888;SDS011;55930;47.412;8.790;2023-01-26T04:01:16;28.33;;;16.37;;
68888;SDS011;55930;47.412;8.790;2023-01-26T04:04:46;27.73;;;15.48;;
68888;SDS011;55930;47.412;8.790;2023-01-26T04:08:25;24.65;;;14.60;;
68888;SDS011;55930;47.412;8.790;2023-01-26T04:11:46;27.03;;;15.37;;
68888;SDS011;55930;47.412;8.790;2023-01-26T04:15:07;26.40;;;15.20;;
68888;SDS011;55930;47.412;8.790;2023-01-26T04:18:46;28.17;;;16.08;;
68888;SDS011;55930;47.412;8.790;2023-01-26T04:22:25;27.92;;;16.88;;
68888;SDS011;55930;47.412;8.790;2023-01-26T04:25:47;25.77;;;14.77;;
68888;SDS011;55930;47.412;8.790;2023-01-26T04:29:11;25.52;;;15.40;;
68888;SDS011;55930;47.412;8.790;2023-01-26T04:32:33;32.88;;;18.48;;
68888;SDS011;55930;47.412;8.790;2023-01-26T04:35:54;28.50;;;17.70;;
68888;SDS011;55930;47.412;8.790;2023-01-26T04:39:14;30.57;;;17.20;;
68888;SDS011;55930;47.412;8.790;2023-01-26T04:42:35;33.07;;;18.40;;
68888;SDS011;55930;47.412;8.790;2023-01-26T04:45:56;31.20;;;18.80;;
68888;SDS011;55930;47.412;8.790;2023-01-26T04:49:26;31.03;;;18.63;;
68888;SDS011;55930;47.412;8.790;2023-01-26T04:52:47;29.37;;;18.00;;
68888;SDS011;55930;47.412;8.790;2023-01-26T04:56:07;32.33;;;18.77;;
68888;SDS011;55930;47.412;8.790;2023-01-26T04:59:38;33.37;;;18.87;;
68888;SDS011;55930;47.412;8.790;2023-01-26T05:02:58;30.57;;;18.63;;
68888;SDS011;55930;47.412;8.790;2023-01-26T05:06:19;31.80;;;19.17;;
68888;SDS011;55930;47.412;8.790;2023-01-26T05:09:39;30.77;;;17.60;;
68888;SDS011;55930;47.412;8.790;2023-01-26T05:13:02;32.25;;;18.73;;
68888;SDS011;55930;47.412;8.790;2023-01-26T05:16:23;32.23;;;19.20;;
68888;SDS011;55930;47.412;8.790;2023-01-26T05:19:43;29.10;;;18.17;;
68888;SDS011;55930;47.412;8.790;2023-01-26T05:23:04;31.97;;;19.77;;
68888;SDS011;55930;47.412;8.790;2023-01-26T05:26:24;31.63;;;18.80;;
68888;SDS011;55930;47.412;8.790;2023-01-26T05:29:45;31.87;;;18.47;;
68888;SDS011;55930;47.412;8.790;2023-01-26T05:33:07;32.57;;;19.13;;
68888;SDS011;55930;47.412;8.790;2023-01-26T05:36:29;31.85;;;19.67;;
68888;SDS011;55930;47.412;8.790;2023-01-26T05:39:49;32.77;;;19.63;;
68888;SDS011;55930;47.412;8.790;2023-01-26T05:43:12;34.88;;;20.27;;
68888;SDS011;55930;47.412;8.790;2023-01-26T05:46:32;31.47;;;18.43;;
68888;SDS011;55930;47.412;8.790;2023-01-26T05:49:57;33.90;;;18.65;;
68888;SDS011;55930;47.412;8.790;2023-01-26T05:53:18;29.45;;;17.83;;
68888;SDS011;55930;47.412;8.790;2023-01-26T05:56:38;30.10;;;19.37;;
68888;SDS011;55930;47.412;8.790;2023-01-26T05:59:59;31.00;;;19.73;;
68888;SDS011;55930;47.412;8.790;2023-01-26T06:03:19;30.87;;;19.13;;
68888;SDS011;55930;47.412;8.790;2023-01-26T06:06:40;30.80;;;17.77;;
68888;SDS011;55930;47.412;8.790;2023-01-26T06:10:01;33.30;;;18.80;;
68888;SDS011;55930;47.412;8.790;2023-01-26T06:13:21;31.23;;;18.83;;
68888;SDS011;55930;47.412;8.790;2023-01-26T06:16:42;31.17;;;17.93;;
68888;SDS011;55930;47.412;8.790;2023-01-26T06:20:02;30.50;;;19.57;;
68888;SDS011;55930;47.412;8.790;2023-01-26T06:23:23;34.03;;;20.10;;
68888;SDS011;55930;47.412;8.790;2023-01-26T06:26:45;31.10;;;18.47;;
68888;SDS011;55930;47.412;8.790;2023-01-26T06:30:09;31.83;;;18.13;;
68888;SDS011;55930;47.412;8.790;2023-01-26T06:33:30;32.35;;;19.63;;
68888;SDS011;55930;47.412;8.790;2023-01-26T06:36:56;32.25;;;19.00;;
68888;SDS011;55930;47.412;8.790;2023-01-26T06:40:19;29.65;;;18.17;;
68888;SDS011;55930;47.412;8.790;2023-01-26T06:43:39;29.10;;;17.55;;
68888;SDS011;55930;47.412;8.790;2023-01-26T06:47:05;31.95;;;19.58;;
68888;SDS011;55930;47.412;8.790;2023-01-26T06:50:32;34.28;;;18.33;;
68888;SDS011;55930;47.412;8.790;2023-01-26T06:53:55;28.40;;;18.20;;
68888;SDS011;55930;47.412;8.790;2023-01-26T06:57:16;29.75;;;17.20;;
68888;SDS011;55930;47.412;8.790;2023-01-26T07:00:37;33.60;;;19.03;;
68888;SDS011;55930;47.412;8.790;2023-01-26T07:03:58;28.20;;;17.27;;
68888;SDS011;55930;47.412;8.790;2023-01-26T07:07:19;34.50;;;19.83;;
68888;SDS011;55930;47.412;8.790;2023-01-26T07:10:39;32.57;;;19.63;;
68888;SDS011;55930;47.412;8.790;2023-01-26T07:14:00;32.00;;;17.90;;
68888;SDS011;55930;47.412;8.790;2023-01-26T07:17:20;36.10;;;18.53;;
68888;SDS011;55930;47.412;8.790;2023-01-26T07:20:41;34.80;;;19.30;;
68888;SDS011;55930;47.412;8.790;2023-01-26T07:24:01;36.93;;;17.87;;
68888;SDS011;55930;47.412;8.790;2023-01-26T07:27:22;37.77;;;19.20;;
68888;SDS011;55930;47.412;8.790;2023-01-26T07:30:42;31.50;;;17.87;;
68888;SDS011;55930;47.412;8.790;2023-01-26T07:34:04;32.37;;;18.13;;
68888;SDS011;55930;47.412;8.790;2023-01-26T07:37:30;30.45;;;18.70;;
68888;SDS011;55930;47.412;8.790;2023-01-26T07:40:51;32.25;;;18.63;;
68888;SDS011;55930;47.412;8.790;2023-01-26T07:44:12;31.95;;;17.92;;
68888;SDS011;55930;47.412;8.790;2023-01-26T07:47:32;30.93;;;18.80;;
68888;SDS011;55930;47.412;8.790;2023-01-26T07:50:52;32.10;;;17.63;;
68888;SDS011;55930;47.412;8.790;2023-01-26T07:54:13;34.70;;;19.37;;
68888;SDS011;55930;47.412;8.790;2023-01-26T07:57:33;32.13;;;18.00;;
68888;SDS011;55930;47.412;8.790;2023-01-26T08:00:54;33.60;;;19.17;;
68888;SDS011;55930;47.412;8.790;2023-01-26T08:04:15;30.10;;;18.13;;
68888;SDS011;55930;47.412;8.790;2023-01-26T08:07:36;32.10;;;19.13;;
68888;SDS011;55930;47.412;8.790;2023-01-26T08:10:57;31.90;;;18.73;;
68888;SDS011;55930;47.412;8.790;2023-01-26T08:14:19;31.67;;;18.30;;
68888;SDS011;55930;47.412;8.790;2023-01-26T08:17:40;31.00;;;16.13;;
68888;SDS011;55930;47.412;8.790;2023-01-26T08:21:00;36.10;;;19.67;;
68888;SDS011;55930;47.412;8.790;2023-01-26T08:24:21;32.13;;;18.63;;
68888;SDS011;55930;47.412;8.790;2023-01-26T08:27:43;37.30;;;19.87;;
68888;SDS011;55930;47.412;8.790;2023-01-26T08:31:05;33.92;;;19.27;;
68888;SDS011;55930;47.412;8.790;2023-01-26T08:34:27;32.83;;;19.33;;
68888;SDS011;55930;47.412;8.790;2023-01-26T08:37:48;32.30;;;19.97;;
68888;SDS011;55930;47.412;8.790;2023-01-26T08:41:08;37.73;;;21.40;;
68888;SDS011;55930;47.412;8.790;2023-01-26T08:47:50;32.38;;;18.10;;
68888;SDS011;55930;47.412;8.790;2023-01-26T08:51:11;36.00;;;20.13;;
68888;SDS011;55930;47.412;8.790;2023-01-26T08:54:31;34.97;;;19.43;;
68888;SDS011;55930;47.412;8.790;2023-01-26T08:57:51;32.27;;;18.10;;
68888;SDS011;55930;47.412;8.790;2023-01-26T09:01:15;37.42;;;20.08;;
68888;SDS011;55930;47.412;8.790;2023-01-26T09:04:36;37.03;;;19.80;;
68888;SDS011;55930;47.412;8.790;2023-01-26T09:07:56;32.67;;;19.47;;
68888;SDS011;55930;47.412;8.790;2023-01-26T09:11:17;39.23;;;20.53;;
68888;SDS011;55930;47.412;8.790;2023-01-26T09:14:39;32.30;;;18.17;;
68888;SDS011;55930;47.412;8.790;2023-01-26T09:18:00;31.77;;;17.73;;
68888;SDS011;55930;47.412;8.790;2023-01-26T09:21:21;36.90;;;19.40;;
68888;SDS011;55930;47.412;8.790;2023-01-26T09:24:43;35.60;;;20.77;;
68888;SDS011;55930;47.412;8.790;2023-01-26T09:28:05;40.72;;;18.55;;
68888;SDS011;55930;47.412;8.790;2023-01-26T09:31:28;37.30;;;19.97;;
68888;SDS011;55930;47.412;8.790;2023-01-26T09:34:48;39.95;;;20.17;;
68888;SDS011;55930;47.412;8.790;2023-01-26T09:38:09;29.30;;;16.23;;
68888;SDS011;55930;47.412;8.790;2023-01-26T09:45:23;31.13;;;16.80;;
68888;SDS011;55930;47.412;8.790;2023-01-26T09:49:08;32.75;;;17.38;;
68888;SDS011;55930;47.412;8.790;2023-01-26T09:52:36;30.00;;;15.90;;
68888;SDS011;55930;47.412;8.790;2023-01-26T09:56:05;37.47;;;19.63;;
68888;SDS011;55930;47.412;8.790;2023-01-26T09:59:31;34.08;;;17.98;;
68888;SDS011;55930;47.412;8.790;2023-01-26T10:06:52;35.17;;;18.27;;
68888;SDS011;55930;47.412;8.790;2023-01-26T10:10:18;30.58;;;17.02;;
68888;SDS011;55930;47.412;8.790;2023-01-26T10:13:49;31.40;;;16.88;;
68888;SDS011;55930;47.412;8.790;2023-01-26T10:17:16;29.75;;;16.67;;
68888;SDS011;55930;47.412;8.790;2023-01-26T10:20:47;33.40;;;18.05;;
68888;SDS011;55930;47.412;8.790;2023-01-26T10:24:11;25.98;;;15.75;;
68888;SDS011;55930;47.412;8.790;2023-01-26T10:27:35;31.85;;;17.40;;
68888;SDS011;55930;47.412;8.790;2023-01-26T10:30:55;30.13;;;17.27;;
68888;SDS011;55930;47.412;8.790;2023-01-26T10:34:24;35.38;;;17.83;;
68888;SDS011;55930;47.412;8.790;2023-01-26T10:38:00;34.28;;;18.23;;
68888;SDS011;55930;47.412;8.790;2023-01-26T10:41:22;34.65;;;17.75;;
68888;SDS011;55930;47.412;8.790;2023-01-26T10:44:45;30.90;;;18.13;;
68888;SDS011;55930;47.412;8.790;2023-01-26T10:48:15;27.90;;;15.82;;
68888;SDS011;55930;47.412;8.790;2023-01-26T10:51:43;33.97;;;17.75;;
68888;SDS011;55930;47.412;8.790;2023-01-26T10:55:26;34.75;;;18.73;;
68888;SDS011;55930;47.412;8.790;2023-01-26T10:58:48;29.75;;;17.05;;
68888;SDS011;55930;47.412;8.790;2023-01-26T11:02:20;28.50;;;17.08;;
68888;SDS011;55930;47.412;8.790;2023-01-26T11:05:48;29.85;;;17.73;;
68888;SDS011;55930;47.412;8.790;2023-01-26T11:09:26;31.33;;;18.85;;
68888;SDS011;55930;47.412;8.790;2023-01-26T11:12:50;29.63;;;16.88;;
68888;SDS011;55930;47.412;8.790;2023-01-26T11:16:25;26.40;;;16.13;;
68888;SDS011;55930;47.412;8.790;2023-01-26T11:34:35;24.42;;;14.68;;
68888;SDS011;55930;47.412;8.790;2023-01-26T11:49:10;25.67;;;15.35;;
68888;SDS011;55930;47.412;8.790;2023-01-26T11:52:55;25.23;;;15.02;;
68888;SDS011;55930;47.412;8.790;2023-01-26T12:00:35;29.88;;;15.40;;
68888;SDS011;55930;47.412;8.790;2023-01-26T12:04:01;25.75;;;15.02;;
68888;SDS011;55930;47.412;8.790;2023-01-26T12:07:29;25.27;;;14.17;;
68888;SDS011;55930;47.412;8.790;2023-01-26T12:18:30;22.95;;;13.05;;
68888;SDS011;55930;47.412;8.790;2023-01-26T12:22:00;21.40;;;12.80;;
68888;SDS011;55930;47.412;8.790;2023-01-26T12:25:41;22.55;;;12.73;;
68888;SDS011;55930;47.412;8.790;2023-01-26T12:32:57;23.17;;;12.65;;
68888;SDS011;55930;47.412;8.790;2023-01-26T12:46:56;20.67;;;11.40;;
68888;SDS011;55930;47.412;8.790;2023-01-26T12:54:07;19.15;;;11.02;;
68888;SDS011;55930;47.412;8.790;2023-01-26T12:57:38;20.17;;;12.07;;
68888;SDS011;55930;47.412;8.790;2023-01-26T13:01:04;22.20;;;12.63;;
68888;SDS011;55930;47.412;8.790;2023-01-26T13:04:29;23.33;;;12.73;;
68888;SDS011;55930;47.412;8.790;2023-01-26T13:07:52;20.15;;;11.93;;
68888;SDS011;55930;47.412;8.790;2023-01-26T13:11:13;21.87;;;11.43;;
68888;SDS011;55930;47.412;8.790;2023-01-26T13:15:00;23.95;;;11.93;;
68888;SDS011;55930;47.412;8.790;2023-01-26T13:18:33;20.83;;;12.07;;
68888;SDS011;55930;47.412;8.790;2023-01-26T13:25:47;21.98;;;12.55;;
68888;SDS011;55930;47.412;8.790;2023-01-26T13:29:29;23.23;;;10.90;;
68888;SDS011;55930;47.412;8.790;2023-01-26T13:32:52;22.42;;;11.73;;
68888;SDS011;55930;47.412;8.790;2023-01-26T13:36:34;23.45;;;11.73;;
68888;SDS011;55930;47.412;8.790;2023-01-26T13:39:59;21.50;;;11.70;;
68888;SDS011;55930;47.412;8.790;2023-01-26T13:43:30;21.10;;;12.02;;
68888;SDS011;55930;47.412;8.790;2023-01-26T13:47:00;19.33;;;11.35;;
68888;SDS011;55930;47.412;8.790;2023-01-26T13:50:33;20.15;;;11.50;;
68888;SDS011;55930;47.412;8.790;2023-01-26T13:57:27;20.85;;;11.38;;
68888;SDS011;55930;47.412;8.790;2023-01-26T14:07:43;20.88;;;11.43;;
68888;SDS011;55930;47.412;8.790;2023-01-26T14:11:13;19.85;;;12.43;;
68888;SDS011;55930;47.412;8.790;2023-01-26T14:14:38;17.92;;;10.55;;
68888;SDS011;55930;47.412;8.790;2023-01-26T14:18:00;23.15;;;11.45;;
68888;SDS011;55930;47.412;8.790;2023-01-26T14:21:23;21.00;;;12.25;;
68888;SDS011;55930;47.412;8.790;2023-01-26T14:24:46;18.57;;;12.27;;
68888;SDS011;55930;47.412;8.790;2023-01-26T14:28:19;18.13;;;11.13;;
68888;SDS011;55930;47.412;8.790;2023-01-26T14:31:42;16.55;;;9.95;;
68888;SDS011;55930;47.412;8.790;2023-01-26T14:35:15;19.00;;;11.03;;
68888;SDS011;55930;47.412;8.790;2023-01-26T14:38:42;20.88;;;10.52;;
68888;SDS011;55930;47.412;8.790;2023-01-26T14:42:04;20.25;;;10.98;;
68888;SDS011;55930;47.412;8.790;2023-01-26T14:45:27;22.35;;;12.18;;
68888;SDS011;55930;47.412;8.790;2023-01-26T14:48:53;18.80;;;10.75;;
68888;SDS011;55930;47.412;8.790;2023-01-26T14:55:47;20.67;;;11.27;;
68888;SDS011;55930;47.412;8.790;2023-01-26T14:59:13;23.80;;;12.05;;
68888;SDS011;55930;47.412;8.790;2023-01-26T15:02:51;21.17;;;11.57;;
68888;SDS011;55930;47.412;8.790;2023-01-26T15:09:34;20.53;;;11.03;;
68888;SDS011;55930;47.412;8.790;2023-01-26T15:12:56;21.80;;;10.50;;
68888;SDS011;55930;47.412;8.790;2023-01-26T15:16:18;20.90;;;11.35;;
68888;SDS011;55930;47.412;8.790;2023-01-26T15:19:40;18.17;;;10.32;;
68888;SDS011;55930;47.412;8.790;2023-01-26T15:23:01;19.55;;;11.02;;
68888;SDS011;55930;47.412;8.790;2023-01-26T15:26:24;20.93;;;11.00;;
68888;SDS011;55930;47.412;8.790;2023-01-26T15:29:56;20.92;;;11.10;;
68888;SDS011;55930;47.412;8.790;2023-01-26T15:33:36;19.63;;;10.63;;
68888;SDS011;55930;47.412;8.790;2023-01-26T15:40:48;22.40;;;10.83;;
68888;SDS011;55930;47.412;8.790;2023-01-26T15:44:11;19.60;;;11.00;;
68888;SDS011;55930;47.412;8.790;2023-01-26T15:47:36;18.50;;;9.43;;
68888;SDS011;55930;47.412;8.790;2023-01-26T15:50:57;21.37;;;11.63;;
68888;SDS011;55930;47.412;8.790;2023-01-26T15:54:17;19.80;;;10.10;;
68888;SDS011;55930;47.412;8.790;2023-01-26T15:57:37;20.13;;;10.37;;
68888;SDS011;55930;47.412;8.790;2023-01-26T16:00:58;21.27;;;10.67;;
68888;SDS011;55930;47.412;8.790;2023-01-26T16:04:18;19.63;;;10.23;;
68888;SDS011;55930;47.412;8.790;2023-01-26T16:07:39;19.33;;;10.63;;
68888;SDS011;55930;47.412;8.790;2023-01-26T16:10:59;19.83;;;9.80;;
68888;SDS011;55930;47.412;8.790;2023-01-26T16:14:20;20.97;;;10.43;;
68888;SDS011;55930;47.412;8.790;2023-01-26T16:17:40;19.13;;;10.70;;
68888;SDS011;55930;47.412;8.790;2023-01-26T16:21:00;21.33;;;10.40;;
68888;SDS011;55930;47.412;8.790;2023-01-26T16:24:35;18.83;;;10.27;;
68888;SDS011;55930;47.412;8.790;2023-01-26T16:27:57;20.85;;;11.65;;
68888;SDS011;55930;47.412;8.790;2023-01-26T16:31:19;18.90;;;10.38;;
68888;SDS011;55930;47.412;8.790;2023-01-26T16:34:44;24.40;;;10.70;;
68888;SDS011;55930;47.412;8.790;2023-01-26T16:38:05;21.63;;;11.33;;
68888;SDS011;55930;47.412;8.790;2023-01-26T16:41:32;19.48;;;11.10;;
68888;SDS011;55930;47.412;8.790;2023-01-26T16:44:53;22.58;;;11.82;;
68888;SDS011;55930;47.412;8.790;2023-01-26T16:48:14;18.77;;;10.40;;
68888;SDS011;55930;47.412;8.790;2023-01-26T16:51:36;23.65;;;10.73;;
68888;SDS011;55930;47.412;8.790;2023-01-26T16:54:58;21.92;;;11.88;;
68888;SDS011;55930;47.412;8.790;2023-01-26T16:58:18;21.07;;;10.27;;
68888;SDS011;55930;47.412;8.790;2023-01-26T17:01:40;20.00;;;10.73;;
68888;SDS011;55930;47.412;8.790;2023-01-26T17:05:01;16.73;;;9.77;;
68888;SDS011;55930;47.412;8.790;2023-01-26T17:08:21;18.53;;;10.10;;
68888;SDS011;55930;47.412;8.790;2023-01-26T17:11:42;17.63;;;10.03;;
68888;SDS011;55930;47.412;8.790;2023-01-26T17:15:03;21.93;;;11.13;;
68888;SDS011;55930;47.412;8.790;2023-01-26T17:18:24;18.80;;;10.40;;
68888;SDS011;55930;47.412;8.790;2023-01-26T17:21:45;20.67;;;11.07;;
68888;SDS011;55930;47.412;8.790;2023-01-26T17:25:06;24.73;;;12.20;;
68888;SDS011;55930;47.412;8.790;2023-01-26T17:28:27;21.77;;;11.30;;
68888;SDS011;55930;47.412;8.790;2023-01-26T17:31:47;20.87;;;11.23;;
68888;SDS011;55930;47.412;8.790;2023-01-26T17:35:08;20.50;;;11.07;;
68888;SDS011;55930;47.412;8.790;2023-01-26T17:38:28;25.17;;;12.57;;
68888;SDS011;55930;47.412;8.790;2023-01-26T17:41:49;21.77;;;11.53;;
68888;SDS011;55930;47.412;8.790;2023-01-26T17:45:10;24.87;;;11.93;;
68888;SDS011;55930;47.412;8.790;2023-01-26T17:48:30;25.30;;;13.07;;
68888;SDS011;55930;47.412;8.790;2023-01-26T17:51:54;25.00;;;14.45;;
68888;SDS011;55930;47.412;8.790;2023-01-26T17:55:14;22.85;;;13.75;;
68888;SDS011;55930;47.412;8.790;2023-01-26T17:58:35;28.47;;;17.93;;
68888;SDS011;55930;47.412;8.790;2023-01-26T18:01:56;24.95;;;14.65;;
68888;SDS011;55930;47.412;8.790;2023-01-26T18:05:16;24.93;;;12.73;;
68888;SDS011;55930;47.412;8.790;2023-01-26T18:08:37;21.73;;;11.43;;
68888;SDS011;55930;47.412;8.790;2023-01-26T18:11:57;25.37;;;12.03;;
68888;SDS011;55930;47.412;8.790;2023-01-26T18:15:18;25.07;;;12.73;;
68888;SDS011;55930;47.412;8.790;2023-01-26T18:18:38;25.30;;;13.30;;
68888;SDS011;55930;47.412;8.790;2023-01-26T18:21:59;22.90;;;11.77;;
68888;SDS011;55930;47.412;8.790;2023-01-26T18:25:19;23.93;;;12.40;;
68888;SDS011;55930;47.412;8.790;2023-01-26T18:28:40;23.25;;;12.52;;
68888;SDS011;55930;47.412;8.790;2023-01-26T18:32:01;23.08;;;13.23;;
68888;SDS011;55930;47.412;8.790;2023-01-26T18:35:22;24.03;;;13.20;;
68888;SDS011;55930;47.412;8.790;2023-01-26T18:38:44;25.10;;;13.83;;
68888;SDS011;55930;47.412;8.790;2023-01-26T18:42:08;24.98;;;13.15;;
68888;SDS011;55930;47.412;8.790;2023-01-26T18:45:29;25.70;;;13.87;;
68888;SDS011;55930;47.412;8.790;2023-01-26T18:48:53;26.00;;;13.73;;
68888;SDS011;55930;47.412;8.790;2023-01-26T18:52:19;27.95;;;13.80;;
68888;SDS011;55930;47.412;8.790;2023-01-26T18:55:40;22.80;;;12.57;;
68888;SDS011;55930;47.412;8.790;2023-01-26T18:59:00;26.40;;;12.23;;
68888;SDS011;55930;47.412;8.790;2023-01-26T19:02:20;23.30;;;12.83;;
68888;SDS011;55930;47.412;8.790;2023-01-26T19:05:41;21.53;;;12.03;;
68888;SDS011;55930;47.412;8.790;2023-01-26T19:09:03;26.03;;;11.90;;
68888;SDS011;55930;47.412;8.790;2023-01-26T19:12:25;23.33;;;13.43;;
68888;SDS011;55930;47.412;8.790;2023-01-26T19:15:46;25.80;;;12.80;;
68888;SDS011;55930;47.412;8.790;2023-01-26T19:19:12;22.40;;;13.00;;
68888;SDS011;55930;47.412;8.790;2023-01-26T19:22:33;27.70;;;13.63;;
68888;SDS011;55930;47.412;8.790;2023-01-26T19:25:53;23.53;;;14.13;;
68888;SDS011;55930;47.412;8.790;2023-01-26T19:29:14;21.47;;;12.43;;
68888;SDS011;55930;47.412;8.790;2023-01-26T19:32:34;22.53;;;12.50;;
68888;SDS011;55930;47.412;8.790;2023-01-26T19:35:55;22.20;;;12.53;;
68888;SDS011;55930;47.412;8.790;2023-01-26T19:39:15;22.67;;;12.33;;
68888;SDS011;55930;47.412;8.790;2023-01-26T19:42:36;19.40;;;11.33;;
68888;SDS011;55930;47.412;8.790;2023-01-26T19:45:56;19.63;;;12.03;;
68888;SDS011;55930;47.412;8.790;2023-01-26T19:49:19;22.85;;;13.30;;
68888;SDS011;55930;47.412;8.790;2023-01-26T19:52:40;22.15;;;11.30;;
68888;SDS011;55930;47.412;8.790;2023-01-26T19:56:08;21.90;;;10.63;;
68888;SDS011;55930;47.412;8.790;2023-01-26T19:59:36;25.33;;;13.52;;
68888;SDS011;55930;47.412;8.790;2023-01-26T20:02:56;27.07;;;13.20;;
68888;SDS011;55930;47.412;8.790;2023-01-26T20:06:20;22.02;;;11.57;;
68888;SDS011;55930;47.412;8.790;2023-01-26T20:09:42;20.60;;;12.35;;
68888;SDS011;55930;47.412;8.790;2023-01-26T20:13:05;22.52;;;12.05;;
68888;SDS011;55930;47.412;8.790;2023-01-26T20:16:25;22.63;;;12.77;;
68888;SDS011;55930;47.412;8.790;2023-01-26T20:19:47;20.50;;;11.40;;
68888;SDS011;55930;47.412;8.790;2023-01-26T20:23:07;20.60;;;12.63;;
68888;SDS011;55930;47.412;8.790;2023-01-26T20:26:28;23.47;;;13.60;;
68888;SDS011;55930;47.412;8.790;2023-01-26T20:29:48;16.67;;;10.50;;
68888;SDS011;55930;47.412;8.790;2023-01-26T20:33:09;21.10;;;12.33;;
68888;SDS011;55930;47.412;8.790;2023-01-26T20:36:30;19.98;;;11.60;;
68888;SDS011;55930;47.412;8.790;2023-01-26T20:39:52;21.38;;;12.10;;
68888;SDS011;55930;47.412;8.790;2023-01-26T20:43:12;19.40;;;13.13;;
68888;SDS011;55930;47.412;8.790;2023-01-26T20:46:36;20.58;;;12.77;;
68888;SDS011;55930;47.412;8.790;2023-01-26T20:49:59;21.52;;;13.20;;
68888;SDS011;55930;47.412;8.790;2023-01-26T20:53:19;20.30;;;12.60;;
68888;SDS011;55930;47.412;8.790;2023-01-26T20:56:41;22.58;;;12.38;;
68888;SDS011;55930;47.412;8.790;2023-01-26T21:00:04;21.17;;;12.40;;
68888;SDS011;55930;47.412;8.790;2023-01-26T21:06:46;20.25;;;12.52;;
68888;SDS011;55930;47.412;8.790;2023-01-26T21:10:07;23.43;;;13.63;;
68888;SDS011;55930;47.412;8.790;2023-01-26T21:13:28;24.90;;;15.68;;
68888;SDS011;55930;47.412;8.790;2023-01-26T21:16:49;21.20;;;12.90;;
68888;SDS011;55930;47.412;8.790;2023-01-26T21:20:12;20.42;;;12.60;;
68888;SDS011;55930;47.412;8.790;2023-01-26T21:23:32;23.17;;;13.83;;
68888;SDS011;55930;47.412;8.790;2023-01-26T21:26:55;23.63;;;13.57;;
68888;SDS011;55930;47.412;8.790;2023-01-26T21:30:16;25.27;;;15.53;;
68888;SDS011;55930;47.412;8.790;2023-01-26T21:33:37;26.37;;;13.97;;
68888;SDS011;55930;47.412;8.790;2023-01-26T21:36:59;25.25;;;13.05;;